Time;durP1;ratioP1;P1;durP2;ratioP2;P2;SDS_P1;SDS_P2;PMS_P1;PMS_P2;Temp;Humidity;BMP_temperature;BMP_pressure;BME280_temperature;BME280_humidity;BME280_pressure;Samples;Min_cycle;Max_cycle;Signal;HPM_P1;HPM_P2
2021/05/03 00:01:12;;;;;;;;;;;5.10;95.80;;;;;;4955901;28;19911;-92
2021/05/03 00:03:37;;;;;;;;;;;5.00;96.00;;;;;;4936127;29;19918;-90
2021/05/03 00:06:03;;;;;;;;;;;5.10;95.50;;;;;;4937511;29;19915;-92
2021/05/03 00:08:28;;;;;;;;;;;5.00;95.30;;;;;;4951948;28;19958;-91
2021/05/03 00:10:54;;;;;;;;;;;5.10;95.30;;;;;;4937720;29;19953;-90
2021/05/03 00:13:20;;;;;;;;;;;5.00;95.10;;;;;;4937128;29;20381;-92
2021/05/03 00:15:46;;;;;;;;;;;5.00;94.90;;;;;;4946211;28;19957;-91
2021/05/03 00:18:12;;;;;;;;;;;5.00;94.90;;;;;;4951840;29;19915;-89
2021/05/03 00:20:37;;;;;;;;;;;5.00;95.00;;;;;;4981746;28;20012;-91
2021/05/03 00:23:03;;;;;;;;;;;5.00;94.50;;;;;;4996012;28;19917;-89
2021/05/03 00:25:31;;;;;;;;;;;5.00;94.50;;;;;;5010109;28;19913;-90
2021/05/03 00:27:57;;;;;;;;;;;5.00;94.40;;;;;;4996242;28;20055;-91
2021/05/03 00:30:23;;;;;;;;;;;5.00;94.50;;;;;;4996476;28;19984;-89
2021/05/03 00:32:48;;;;;;;;;;;5.00;94.40;;;;;;4995466;28;19922;-91
2021/05/03 00:35:17;;;;;;;;;;;5.00;94.40;;;;;;4996715;28;19910;-89
2021/05/03 00:37:42;;;;;;;;;;;4.90;94.50;;;;;;5032516;28;19921;-88
2021/05/03 00:40:08;;;;;;;;;;;4.90;94.30;;;;;;5000792;28;19909;-90
2021/05/03 00:42:46;;;;;;;;;;;4.90;94.30;;;;;;5013660;28;20273;-90
2021/05/03 00:45:13;;;;;;;;;;;4.90;94.40;;;;;;5015938;28;20391;-91
2021/05/03 00:47:42;;;;;;;;;;;4.90;94.40;;;;;;5030348;28;20040;-91
2021/05/03 00:50:09;;;;;;;;;;;5.00;94.40;;;;;;4996273;28;19928;-91
2021/05/03 00:52:35;;;;;;;;;;;4.90;94.30;;;;;;5015455;28;19920;-89
2021/05/03 00:55:08;;;;;;;;;;;4.90;94.30;;;;;;5010707;28;19913;-90
2021/05/03 00:57:36;;;;;;;;;;;4.90;94.30;;;;;;5039768;28;19920;-92
2021/05/03 01:00:06;;;;;;;;;;;5.00;94.60;;;;;;5021705;28;19955;-93
2021/05/03 01:02:31;;;;;;;;;;;5.00;94.60;;;;;;5018980;28;19913;-90
2021/05/03 01:04:57;;;;;;;;;;;5.00;94.40;;;;;;5019864;28;20011;-89
2021/05/03 01:07:22;;;;;;;;;;;5.00;94.50;;;;;;5020729;28;19991;-91
2021/05/03 01:09:48;;;;;;;;;;;4.90;94.50;;;;;;5031911;28;19940;-91
2021/05/03 01:12:16;;;;;;;;;;;5.00;94.40;;;;;;5033044;28;20295;-91
2021/05/03 01:14:45;;;;;;;;;;;4.90;94.60;;;;;;5036084;28;20256;-90
2021/05/03 01:17:14;;;;;;;;;;;5.00;94.20;;;;;;5021213;28;19920;-90
2021/05/03 01:19:39;;;;;;;;;;;4.90;94.20;;;;;;5020553;28;19913;-91
2021/05/03 01:22:05;;;;;;;;;;;5.00;94.40;;;;;;5018260;28;19917;-90
2021/05/03 01:24:36;;;;;;;;;;;5.00;94.30;;;;;;5020174;28;19924;-90
2021/05/03 01:27:02;;;;;;;;;;;5.00;94.00;;;;;;5036903;28;19921;-90
2021/05/03 01:29:28;;;;;;;;;;;5.00;93.70;;;;;;5038546;28;19928;-91
2021/05/03 01:31:56;;;;;;;;;;;5.00;94.00;;;;;;5038623;28;20015;-91
2021/05/03 01:34:22;;;;;;;;;;;5.00;93.60;;;;;;5021271;28;19913;-90
2021/05/03 01:36:48;;;;;;;;;;;5.00;93.70;;;;;;5037694;28;19917;-89
2021/05/03 01:39:14;;;;;;;;;;;5.00;94.00;;;;;;5033908;28;19917;-90
2021/05/03 01:41:43;;;;;;;;;;;5.10;93.70;;;;;;5052195;28;19913;-90
2021/05/03 01:44:10;;;;;;;;;;;5.00;94.00;;;;;;5018200;28;20381;-91
2021/05/03 01:46:38;;;;;;;;;;;5.00;93.80;;;;;;5042165;28;20029;-90
2021/05/03 01:49:05;;;;;;;;;;;5.00;93.90;;;;;;5015473;28;19913;-91
2021/05/03 01:51:35;;;;;;;;;;;5.00;93.40;;;;;;5036159;28;19972;-89
2021/05/03 01:54:04;;;;;;;;;;;5.10;93.80;;;;;;5016591;28;20028;-93
2021/05/03 01:56:33;;;;;;;;;;;5.00;93.30;;;;;;5022192;28;20089;-91
2021/05/03 01:58:58;;;;;;;;;;;5.10;93.40;;;;;;5031957;28;19917;-90
2021/05/03 02:01:30;;;;;;;;;;;5.00;93.40;;;;;;5019003;28;20326;-90
2021/05/03 02:03:55;;;;;;;;;;;5.10;93.50;;;;;;5039060;28;19921;-93
2021/05/03 02:06:21;;;;;;;;;;;5.00;93.50;;;;;;5039509;28;20419;-92
2021/05/03 02:08:48;;;;;;;;;;;5.00;93.10;;;;;;5021743;28;19909;-91
2021/05/03 02:11:13;;;;;;;;;;;5.00;93.40;;;;;;5029885;28;19975;-91
2021/05/03 02:13:39;;;;;;;;;;;5.00;93.60;;;;;;5036294;28;19913;-92
2021/05/03 02:16:05;;;;;;;;;;;5.10;93.80;;;;;;5035768;28;19916;-91
2021/05/03 02:18:32;;;;;;;;;;;5.10;93.60;;;;;;5018007;28;19914;-92
2021/05/03 02:20:58;;;;;;;;;;;5.10;93.40;;;;;;5029888;28;20004;-92
2021/05/03 02:23:24;;;;;;;;;;;5.10;93.60;;;;;;5036265;28;20459;-92
2021/05/03 02:25:53;;;;;;;;;;;5.10;93.80;;;;;;5034690;28;19964;-88
2021/05/03 02:28:24;;;;;;;;;;;5.10;93.80;;;;;;5035948;28;19920;-88
2021/05/03 02:30:50;;;;;;;;;;;5.00;93.90;;;;;;5035314;28;19929;-92
2021/05/03 02:33:19;;;;;;;;;;;5.10;93.80;;;;;;5016620;28;19921;-90
2021/05/03 02:35:45;;;;;;;;;;;5.10;93.60;;;;;;5014461;28;19921;-89
2021/05/03 02:38:19;;;;;;;;;;;5.10;93.80;;;;;;5034227;28;20340;-89
2021/05/03 02:40:47;;;;;;;;;;;5.10;94.20;;;;;;5014021;28;20033;-92
2021/05/03 02:43:13;;;;;;;;;;;5.10;93.80;;;;;;5032871;28;19932;-89
2021/05/03 02:45:40;;;;;;;;;;;5.10;94.00;;;;;;5015494;28;19933;-92
2021/05/03 02:48:06;;;;;;;;;;;5.20;94.10;;;;;;5007165;28;20283;-92
2021/05/03 02:50:32;;;;;;;;;;;5.10;94.20;;;;;;5013666;28;20277;-93
2021/05/03 02:53:03;;;;;;;;;;;5.10;94.40;;;;;;5023988;28;19917;-92
2021/05/03 02:55:32;;;;;;;;;;;5.10;94.30;;;;;;5011752;28;19913;-92
2021/05/03 02:58:00;;;;;;;;;;;5.20;94.40;;;;;;5024359;28;19917;-91
2021/05/03 03:00:34;;;;;;;;;;;5.20;94.40;;;;;;5024174;28;19972;-91
2021/05/03 03:03:06;;;;;;;;;;;5.10;94.50;;;;;;5032215;28;19919;-90
2021/05/03 03:05:37;;;;;;;;;;;5.20;94.70;;;;;;5031943;28;19913;-92
2021/05/03 03:08:04;;;;;;;;;;;5.20;94.60;;;;;;5036849;28;19917;-90
2021/05/03 03:10:36;;;;;;;;;;;5.20;94.70;;;;;;5013703;28;19931;-91
2021/05/03 03:13:04;;;;;;;;;;;5.20;94.70;;;;;;5032914;28;19945;-90
2021/05/03 03:15:43;;;;;;;;;;;5.20;94.50;;;;;;5014630;28;19913;-90
2021/05/03 03:18:11;;;;;;;;;;;5.20;94.80;;;;;;5025421;28;19917;-90
2021/05/03 03:20:37;;;;;;;;;;;5.20;95.00;;;;;;5032093;28;19913;-90
2021/05/03 03:23:08;;;;;;;;;;;5.20;94.70;;;;;;5032750;28;19924;-91
2021/05/03 03:25:48;;;;;;;;;;;5.20;94.80;;;;;;5028605;28;19917;-91
2021/05/03 03:28:14;;;;;;;;;;;5.10;95.00;;;;;;5031038;28;19948;-89
2021/05/03 03:30:39;;;;;;;;;;;5.10;94.80;;;;;;5030575;28;19975;-91
2021/05/03 03:33:11;;;;;;;;;;;5.20;94.50;;;;;;5031090;28;19917;-91
2021/05/03 03:35:36;;;;;;;;;;;5.10;94.50;;;;;;5014140;28;19932;-89
2021/05/03 03:38:08;;;;;;;;;;;5.10;94.10;;;;;;5033752;28;20209;-91
2021/05/03 03:40:37;;;;;;;;;;;5.20;94.20;;;;;;5012539;28;20266;-92
2021/05/03 03:43:02;;;;;;;;;;;5.20;94.10;;;;;;5029637;28;19913;-92
2021/05/03 03:45:28;;;;;;;;;;;5.20;94.30;;;;;;5013628;28;19914;-92
2021/05/03 03:47:53;;;;;;;;;;;5.20;94.30;;;;;;5014759;28;19960;-90
2021/05/03 03:50:19;;;;;;;;;;;5.30;94.20;;;;;;5014674;28;19972;-89
2021/05/03 03:53:05;;;;;;;;;;;5.20;94.10;;;;;;5015638;28;19967;-90
2021/05/03 03:55:39;;;;;;;;;;;5.20;94.00;;;;;;5030630;28;20367;-90
2021/05/03 03:58:11;;;;;;;;;;;5.20;94.00;;;;;;5028410;28;19919;-89
2021/05/03 04:00:42;;;;;;;;;;;5.20;94.10;;;;;;5029877;28;19913;-91
2021/05/03 04:03:10;;;;;;;;;;;5.20;93.90;;;;;;5011429;28;19921;-90
2021/05/03 04:25:10;;;;;;;;;;;5.30;93.80;;;;;;4997687;28;20028;-92
2021/05/03 04:27:37;;;;;;;;;;;5.30;93.70;;;;;;4993607;28;20061;-92
2021/05/03 04:30:13;;;;;;;;;;;5.30;93.80;;;;;;4999153;28;19917;-89
2021/05/03 04:32:38;;;;;;;;;;;5.40;93.70;;;;;;4990959;28;19918;-90
2021/05/03 04:35:04;;;;;;;;;;;5.40;93.80;;;;;;4990903;28;19958;-89
2021/05/03 04:37:31;;;;;;;;;;;5.40;93.60;;;;;;4975547;28;19914;-89
2021/05/03 04:40:04;;;;;;;;;;;5.40;93.50;;;;;;4972424;28;19914;-91
2021/05/03 04:42:29;;;;;;;;;;;5.40;93.70;;;;;;4986935;28;19925;-91
2021/05/03 04:45:01;;;;;;;;;;;5.40;93.70;;;;;;4992659;28;19918;-89
2021/05/03 04:47:35;;;;;;;;;;;5.40;93.60;;;;;;4964621;28;20338;-90
2021/05/03 04:50:05;;;;;;;;;;;5.50;93.40;;;;;;4999522;28;20019;-89
2021/05/03 04:52:31;;;;;;;;;;;5.50;93.50;;;;;;5028726;28;19918;-90
2021/05/03 04:55:06;;;;;;;;;;;5.50;93.60;;;;;;5013661;28;19920;-92
2021/05/03 04:57:31;;;;;;;;;;;5.50;93.40;;;;;;5022642;28;19917;-88
2021/05/03 05:00:03;;;;;;;;;;;5.50;93.30;;;;;;5029595;28;19924;-91
2021/05/03 05:02:29;;;;;;;;;;;5.50;93.20;;;;;;5028746;28;19917;-93
2021/05/03 05:04:55;;;;;;;;;;;5.50;92.70;;;;;;5029136;28;19920;-91
2021/05/03 05:07:23;;;;;;;;;;;5.60;92.90;;;;;;5010031;28;19917;-92
2021/05/03 05:09:56;;;;;;;;;;;5.60;92.70;;;;;;5028574;28;19933;-89
2021/05/03 05:12:21;;;;;;;;;;;5.60;92.50;;;;;;5029448;28;20269;-90
2021/05/03 05:14:50;;;;;;;;;;;5.60;92.60;;;;;;5013681;28;19968;-92
2021/05/03 05:17:15;;;;;;;;;;;5.70;92.90;;;;;;5011177;28;19923;-91
2021/05/03 05:19:41;;;;;;;;;;;5.70;92.60;;;;;;5027088;28;20028;-91
2021/05/03 05:22:21;;;;;;;;;;;5.70;91.90;;;;;;5012596;28;20267;-90
2021/05/03 05:24:50;;;;;;;;;;;5.70;91.50;;;;;;5027954;28;19959;-89
2021/05/03 05:27:15;;;;;;;;;;;5.70;91.70;;;;;;5030399;28;19917;-89
2021/05/03 05:29:44;;;;;;;;;;;5.70;91.70;;;;;;5029016;28;19922;-89
2021/05/03 05:32:13;;;;;;;;;;;5.80;91.40;;;;;;5014109;28;20025;-89
2021/05/03 05:34:38;;;;;;;;;;;5.80;91.40;;;;;;5027928;28;19921;-87
2021/05/03 05:37:11;;;;;;;;;;;5.80;91.60;;;;;;5030099;28;19967;-92
2021/05/03 05:39:37;;;;;;;;;;;5.90;91.30;;;;;;5027224;28;19948;-90
2021/05/03 05:42:02;;;;;;;;;;;5.90;91.20;;;;;;5011242;28;19917;-88
2021/05/03 05:44:35;;;;;;;;;;;5.90;91.20;;;;;;5017736;28;19913;-91
2021/05/03 05:47:04;;;;;;;;;;;6.00;91.00;;;;;;5033870;28;20371;-94
2021/05/03 05:49:33;;;;;;;;;;;6.00;90.90;;;;;;5015910;28;20001;-91
2021/05/03 05:51:58;;;;;;;;;;;6.10;91.40;;;;;;5015010;28;19921;-92
2021/05/03 05:54:27;;;;;;;;;;;6.10;91.40;;;;;;5033016;28;20309;-90
2021/05/03 05:56:54;;;;;;;;;;;6.20;91.40;;;;;;5015360;28;19925;-91
2021/05/03 05:59:23;;;;;;;;;;;6.30;90.80;;;;;;5017722;28;20415;-90
2021/05/03 06:01:55;;;;;;;;;;;6.40;91.10;;;;;;5012049;28;19917;-91
2021/05/03 06:04:23;;;;;;;;;;;6.40;90.90;;;;;;5012868;28;20051;-91
2021/05/03 06:06:49;;;;;;;;;;;6.40;90.60;;;;;;5025049;28;19913;-88
2021/05/03 06:09:20;;;;;;;;;;;6.40;90.90;;;;;;5030990;28;19919;-92
2021/05/03 06:11:46;;;;;;;;;;;6.40;90.40;;;;;;5029027;28;20011;-91
2021/05/03 06:14:14;;;;;;;;;;;6.40;90.60;;;;;;5016600;28;20379;-90
2021/05/03 06:16:40;;;;;;;;;;;6.50;90.60;;;;;;5014165;28;19976;-91
2021/05/03 06:19:09;;;;;;;;;;;6.60;89.70;;;;;;5012787;28;19957;-88
2021/05/03 06:21:40;;;;;;;;;;;6.60;90.10;;;;;;5012630;28;20072;-91
2021/05/03 06:24:06;;;;;;;;;;;6.80;90.00;;;;;;5029518;28;20291;-91
2021/05/03 06:26:32;;;;;;;;;;;6.80;88.80;;;;;;5015676;28;20245;-90
2021/05/03 06:28:57;;;;;;;;;;;6.90;88.30;;;;;;5017907;28;19917;-89
2021/05/03 06:31:31;;;;;;;;;;;7.00;89.30;;;;;;5015584;28;19928;-88
2021/05/03 06:33:57;;;;;;;;;;;7.00;86.60;;;;;;5030659;28;19913;-91
2021/05/03 06:36:28;;;;;;;;;;;7.10;87.30;;;;;;5031723;28;19913;-93
2021/05/03 06:38:54;;;;;;;;;;;7.10;84.90;;;;;;5018594;28;20467;-91
2021/05/03 06:41:19;;;;;;;;;;;7.10;85.00;;;;;;5037099;28;19933;-90
2021/05/03 06:43:45;;;;;;;;;;;7.10;83.00;;;;;;5036526;28;20402;-92
2021/05/03 06:46:10;;;;;;;;;;;7.20;83.40;;;;;;5017689;28;19924;-93
2021/05/03 06:48:36;;;;;;;;;;;7.30;82.40;;;;;;5015980;28;19913;-92
2021/05/03 06:51:02;;;;;;;;;;;7.30;80.70;;;;;;5022260;28;19982;-92
2021/05/03 06:53:37;;;;;;;;;;;7.40;81.50;;;;;;5034707;28;19913;-92
2021/05/03 06:56:02;;;;;;;;;;;7.60;81.70;;;;;;5036153;28;19916;-92
2021/05/03 06:58:28;;;;;;;;;;;7.70;80.90;;;;;;5032349;28;19917;-91
2021/05/03 07:00:59;;;;;;;;;;;7.70;78.70;;;;;;5035150;28;20351;-92
2021/05/03 07:03:34;;;;;;;;;;;7.80;79.60;;;;;;5018658;28;19913;-89
2021/05/03 07:05:59;;;;;;;;;;;7.80;79.90;;;;;;5018170;28;19900;-92
2021/05/03 07:08:30;;;;;;;;;;;7.80;80.40;;;;;;5032075;28;19917;-90
2021/05/03 07:11:27;;;;;;;;;;;7.80;80.70;;;;;;5016145;28;19921;-91
2021/05/03 07:14:05;;;;;;;;;;;7.60;81.30;;;;;;5012524;28;19959;-91
2021/05/03 07:16:31;;;;;;;;;;;7.60;84.30;;;;;;5019622;28;19916;-94
2021/05/03 07:19:02;;;;;;;;;;;7.60;83.60;;;;;;5019053;28;19985;-91
2021/05/03 07:21:29;;;;;;;;;;;7.60;81.60;;;;;;5035243;28;19917;-90
2021/05/03 07:23:54;;;;;;;;;;;7.70;81.90;;;;;;5030956;28;19917;-91
2021/05/03 07:26:23;;;;;;;;;;;7.80;80.90;;;;;;5012805;28;20282;-90
2021/05/03 07:31:44;;;;;;;;;;;8.10;81.60;;;;;;5020484;28;20295;-91
2021/05/03 07:34:10;;;;;;;;;;;8.20;78.40;;;;;;5023824;28;19988;-91
2021/05/03 07:36:42;;;;;;;;;;;8.30;77.10;;;;;;5013253;28;20498;-89
2021/05/03 07:39:07;;;;;;;;;;;8.40;76.20;;;;;;5009959;28;19914;-91
2021/05/03 07:41:41;;;;;;;;;;;8.50;74.90;;;;;;5029683;28;19913;-91
2021/05/03 07:44:07;;;;;;;;;;;8.60;73.40;;;;;;5014971;28;19913;-93
2021/05/03 07:46:32;;;;;;;;;;;8.80;73.10;;;;;;5033074;28;20379;-90
2021/05/03 07:49:05;;;;;;;;;;;9.00;72.60;;;;;;5026568;28;19917;-89
2021/05/03 07:51:33;;;;;;;;;;;9.20;72.90;;;;;;5034411;28;19921;-91
2021/05/03 07:54:01;;;;;;;;;;;9.10;71.40;;;;;;5009708;28;19917;-88
2021/05/03 07:56:30;;;;;;;;;;;9.10;70.60;;;;;;5034177;28;20422;-87
2021/05/03 07:58:59;;;;;;;;;;;9.10;70.80;;;;;;5032679;28;19940;-92
2021/05/03 08:01:27;;;;;;;;;;;9.20;70.40;;;;;;5016446;28;19949;-91
2021/05/03 08:03:53;;;;;;;;;;;9.20;70.70;;;;;;5012711;28;19914;-92
2021/05/03 08:06:19;;;;;;;;;;;9.40;71.00;;;;;;5023817;28;19939;-91
2021/05/03 08:08:45;;;;;;;;;;;9.50;70.10;;;;;;5013726;28;19914;-94
2021/05/03 08:11:18;;;;;;;;;;;9.50;68.80;;;;;;5034350;28;19927;-92
2021/05/03 08:13:47;;;;;;;;;;;9.50;69.00;;;;;;5033223;28;19917;-90
2021/05/03 08:16:15;;;;;;;;;;;9.50;67.80;;;;;;5036527;28;20359;-93
2021/05/03 08:18:41;;;;;;;;;;;9.40;67.00;;;;;;5033986;28;19913;-93
2021/05/03 08:21:11;;;;;;;;;;;9.50;68.60;;;;;;5032047;28;19921;-92
2021/05/03 08:23:36;;;;;;;;;;;9.60;68.50;;;;;;5003535;28;19917;-92
2021/05/03 08:26:05;;;;;;;;;;;9.70;68.40;;;;;;5002428;28;19941;-89
2021/05/03 08:28:31;;;;;;;;;;;9.80;70.10;;;;;;5016960;28;19963;-91
2021/05/03 08:31:04;;;;;;;;;;;9.90;71.10;;;;;;5026890;28;20276;-92
2021/05/03 08:33:29;;;;;;;;;;;9.80;68.80;;;;;;5033810;28;19922;-93
2021/05/03 08:35:56;;;;;;;;;;;9.70;67.80;;;;;;5014675;28;20241;-91
2021/05/03 08:38:22;;;;;;;;;;;9.70;67.40;;;;;;5032590;28;19913;-90
2021/05/03 08:40:48;;;;;;;;;;;9.70;66.70;;;;;;5037687;28;19924;-92
2021/05/03 08:43:17;;;;;;;;;;;9.50;64.70;;;;;;5036157;28;20330;-88
2021/05/03 08:45:51;;;;;;;;;;;9.30;65.00;;;;;;5034258;28;19975;-92
2021/05/03 08:48:25;;;;;;;;;;;9.40;67.80;;;;;;5000806;28;19922;-92
2021/05/03 08:53:28;;;;;;;;;;;9.70;67.10;;;;;;5034696;28;20390;-90
2021/05/03 08:55:56;;;;;;;;;;;9.80;65.80;;;;;;5019226;28;19917;-89
2021/05/03 08:58:21;;;;;;;;;;;10.00;65.80;;;;;;5029080;28;19913;-90
2021/05/03 09:00:47;;;;;;;;;;;10.00;67.70;;;;;;5020355;28;21555;-92
2021/05/03 09:03:16;;;;;;;;;;;10.10;67.20;;;;;;4982112;28;19925;-91
2021/05/03 09:05:45;;;;;;;;;;;10.10;66.00;;;;;;5027893;28;19919;-92
2021/05/03 09:08:24;;;;;;;;;;;10.00;64.30;;;;;;5006921;28;20010;-89
2021/05/03 09:11:10;;;;;;;;;;;10.00;64.40;;;;;;5001610;28;19921;-92
2021/05/03 09:13:39;;;;;;;;;;;9.90;65.40;;;;;;5009223;28;19921;-92
2021/05/03 09:16:18;;;;;;;;;;;9.90;64.90;;;;;;5020252;28;19913;-92
2021/05/03 09:18:44;;;;;;;;;;;9.80;64.00;;;;;;5003505;28;20012;-92
2021/05/03 09:21:17;;;;;;;;;;;9.90;64.80;;;;;;5031921;28;19952;-91
2021/05/03 09:24:32;;;;;;;;;;;10.00;66.30;;;;;;5022308;28;20040;-93
2021/05/03 09:27:06;;;;;;;;;;;10.20;63.90;;;;;;4935000;29;19915;-89
2021/05/03 09:29:45;;;;;;;;;;;10.40;62.40;;;;;;4943836;29;19921;-94
2021/05/03 09:32:24;;;;;;;;;;;10.50;61.30;;;;;;4939171;29;20397;-92
2021/05/03 09:34:52;;;;;;;;;;;10.60;60.70;;;;;;4940356;29;19911;-90
2021/05/03 09:37:34;;;;;;;;;;;10.70;62.80;;;;;;4925105;29;19958;-91
2021/05/03 09:40:03;;;;;;;;;;;10.70;62.20;;;;;;4942454;29;19954;-93
2021/05/03 09:42:50;;;;;;;;;;;10.60;60.80;;;;;;4923291;29;19917;-91
2021/05/03 09:45:26;;;;;;;;;;;10.50;61.00;;;;;;4934401;29;19974;-91
2021/05/03 09:47:52;;;;;;;;;;;10.60;60.20;;;;;;4959454;28;19976;-91
2021/05/03 09:50:21;;;;;;;;;;;10.60;61.00;;;;;;4942201;29;19926;-93
2021/05/03 09:53:05;;;;;;;;;;;10.70;61.40;;;;;;4958978;28;19925;-92
2021/05/03 09:55:36;;;;;;;;;;;10.60;61.60;;;;;;4959501;28;19918;-89
2021/05/03 09:58:15;;;;;;;;;;;10.60;61.30;;;;;;4996072;28;19925;-91
2021/05/03 10:00:42;;;;;;;;;;;10.60;62.50;;;;;;5009591;28;19916;-92
2021/05/03 10:03:26;;;;;;;;;;;10.70;63.10;;;;;;4997074;28;19940;-92
2021/05/03 10:05:52;;;;;;;;;;;10.80;63.00;;;;;;4999717;28;19913;-90
2021/05/03 10:08:21;;;;;;;;;;;10.70;62.90;;;;;;5016934;28;19920;-89
2021/05/03 10:10:50;;;;;;;;;;;10.70;63.40;;;;;;4997856;28;19984;-88
2021/05/03 10:13:16;;;;;;;;;;;10.60;63.40;;;;;;5017051;28;20012;-90
2021/05/03 10:15:46;;;;;;;;;;;10.50;63.40;;;;;;5016307;28;20393;-88
2021/05/03 10:18:18;;;;;;;;;;;10.40;64.70;;;;;;5014780;28;19918;-87
2021/05/03 10:20:47;;;;;;;;;;;10.50;67.60;;;;;;5012364;28;19971;-91
2021/05/03 10:23:24;;;;;;;;;;;10.50;69.20;;;;;;5000398;28;20004;-90
2021/05/03 10:25:59;;;;;;;;;;;10.50;67.30;;;;;;5015519;28;19913;-90
2021/05/03 10:28:31;;;;;;;;;;;10.50;68.70;;;;;;4990399;28;19936;-89
2021/05/03 10:31:00;;;;;;;;;;;10.50;68.80;;;;;;5014274;28;19921;-93
2021/05/03 10:33:36;;;;;;;;;;;10.50;69.10;;;;;;5013549;28;19921;-90
2021/05/03 10:36:08;;;;;;;;;;;10.60;69.70;;;;;;5000808;28;19917;-94
2021/05/03 10:38:47;;;;;;;;;;;10.50;69.80;;;;;;5014932;28;20004;-90
2021/05/03 10:41:48;;;;;;;;;;;10.40;69.20;;;;;;5014103;28;19923;-87
2021/05/03 10:44:22;;;;;;;;;;;10.60;70.40;;;;;;4917904;29;19915;-91
2021/05/03 10:47:00;;;;;;;;;;;10.80;70.40;;;;;;4936990;29;19926;-89
2021/05/03 10:49:43;;;;;;;;;;;11.00;69.90;;;;;;4937155;29;19914;-90
2021/05/03 10:55:44;;;;;;;;;;;11.00;68.70;;;;;;4898060;29;19915;-91
2021/05/03 10:58:10;;;;;;;;;;;10.90;68.30;;;;;;4896894;29;19922;-88
2021/05/03 11:00:59;;;;;;;;;;;10.90;69.10;;;;;;4898127;29;19915;-90
2021/05/03 11:03:50;;;;;;;;;;;11.00;69.30;;;;;;4897022;29;20833;-92
2021/05/03 11:06:45;;;;;;;;;;;10.90;68.90;;;;;;4896767;29;19916;-87
2021/05/03 11:09:33;;;;;;;;;;;10.40;70.10;;;;;;4896441;29;20060;-91
2021/05/03 11:12:04;;;;;;;;;;;10.30;71.20;;;;;;4890249;29;19931;-92
2021/05/03 11:14:32;;;;;;;;;;;10.20;71.60;;;;;;4895323;29;20438;-88
2021/05/03 11:17:12;;;;;;;;;;;10.00;71.90;;;;;;4893613;29;20393;-89
2021/05/03 11:20:09;;;;;;;;;;;10.00;72.60;;;;;;4941855;28;19918;-87
2021/05/03 11:22:41;;;;;;;;;;;9.90;72.90;;;;;;4954039;28;19925;-90
2021/05/03 11:25:21;;;;;;;;;;;10.10;72.80;;;;;;4952764;29;20010;-90
2021/05/03 11:34:03;;;;;;;;;;;10.70;69.00;;;;;;4933711;29;19915;-93
2021/05/03 11:36:33;;;;;;;;;;;10.60;69.80;;;;;;4879267;29;19923;-91
2021/05/03 11:39:07;;;;;;;;;;;10.50;73.00;;;;;;4882266;29;19954;-92
2021/05/03 11:44:22;;;;;;;;;;;10.30;75.30;;;;;;4888368;29;19996;-91
2021/05/03 11:46:48;;;;;;;;;;;10.40;74.40;;;;;;4884369;29;19932;-92
2021/05/03 11:49:34;;;;;;;;;;;10.50;74.00;;;;;;4886194;29;20035;-89
2021/05/03 11:52:05;;;;;;;;;;;10.60;73.30;;;;;;4870599;29;19924;-91
2021/05/03 11:54:46;;;;;;;;;;;10.60;73.70;;;;;;4879850;29;19968;-90
2021/05/03 11:57:17;;;;;;;;;;;10.60;72.50;;;;;;4880938;29;20410;-89
2021/05/03 11:59:58;;;;;;;;;;;10.60;74.20;;;;;;4886463;29;19931;-92
2021/05/03 12:02:27;;;;;;;;;;;10.80;72.90;;;;;;4864161;29;19928;-91
2021/05/03 12:04:56;;;;;;;;;;;10.80;69.50;;;;;;4881650;29;20013;-91
2021/05/03 12:07:29;;;;;;;;;;;10.90;69.80;;;;;;4934728;28;19924;-92
2021/05/03 12:10:13;;;;;;;;;;;10.90;68.20;;;;;;4985589;28;20404;-91
2021/05/03 12:12:42;;;;;;;;;;;10.90;69.00;;;;;;4985188;28;19921;-92
2021/05/03 12:15:14;;;;;;;;;;;10.80;66.90;;;;;;5004725;28;19933;-90
2021/05/03 12:17:39;;;;;;;;;;;10.70;68.60;;;;;;5009168;28;19941;-90
2021/05/03 12:20:05;;;;;;;;;;;10.70;68.90;;;;;;5008124;28;19920;-92
2021/05/03 12:22:31;;;;;;;;;;;10.70;68.90;;;;;;4993920;28;20395;-91
2021/05/03 12:25:08;;;;;;;;;;;10.80;68.70;;;;;;4984395;28;20051;-92
2021/05/03 12:27:43;;;;;;;;;;;10.90;68.50;;;;;;4972165;28;19914;-92
2021/05/03 12:30:15;;;;;;;;;;;10.70;68.80;;;;;;4999772;28;20367;-91
2021/05/03 12:35:46;;;;;;;;;;;10.60;73.20;;;;;;4996454;28;19964;-91
2021/05/03 12:38:24;;;;;;;;;;;;;;;;;;;;;
2021/05/03 12:40:50;;;;;;;;;;;10.60;72.80;;;;;;4995841;28;19914;-93
2021/05/03 12:43:30;;;;;;;;;;;10.60;71.90;;;;;;5000757;28;19928;-89
2021/05/03 12:46:12;;;;;;;;;;;10.70;70.60;;;;;;5011053;28;20386;-89
2021/05/03 12:52:12;;;;;;;;;;;10.80;70.60;;;;;;4966065;28;19941;-89
2021/05/03 12:58:10;;;;;;;;;;;10.70;69.60;;;;;;5015643;28;19920;-90
2021/05/03 13:01:01;;;;;;;;;;;10.60;70.40;;;;;;4987714;28;19922;-91
2021/05/03 13:04:24;;;;;;;;;;;10.50;72.90;;;;;;4989870;28;19941;-88
2021/05/03 13:29:22;;;;;;;;;;;10.30;79.00;;;;;;4994051;28;19928;-92
2021/05/03 13:31:48;;;;;;;;;;;10.10;80.40;;;;;;5005639;28;19930;-90
2021/05/03 13:34:14;;;;;;;;;;;9.90;81.00;;;;;;4993493;28;19917;-92
2021/05/03 13:36:47;;;;;;;;;;;9.60;81.20;;;;;;5009216;28;19921;-93
2021/05/03 13:39:21;;;;;;;;;;;9.50;81.60;;;;;;5006826;28;19921;-92
2021/05/03 13:41:53;;;;;;;;;;;9.50;81.80;;;;;;5013610;28;19917;-90
2021/05/03 13:44:22;;;;;;;;;;;9.40;81.60;;;;;;5006106;28;20287;-91
2021/05/03 13:46:57;;;;;;;;;;;9.40;80.20;;;;;;5002043;28;20061;-91
2021/05/03 13:49:25;;;;;;;;;;;9.50;78.80;;;;;;5014962;28;20248;-93
2021/05/03 13:51:53;;;;;;;;;;;9.70;78.50;;;;;;5000951;28;20015;-90
2021/05/03 13:54:26;;;;;;;;;;;9.90;79.20;;;;;;5006139;28;20438;-90
2021/05/03 13:57:17;;;;;;;;;;;10.00;76.60;;;;;;5008259;28;19966;-91
2021/05/03 13:59:43;;;;;;;;;;;10.20;77.20;;;;;;4997341;28;19924;-90
2021/05/03 14:02:17;;;;;;;;;;;10.40;76.00;;;;;;5004776;28;19913;-91
2021/05/03 14:04:46;;;;;;;;;;;10.40;75.30;;;;;;5028788;28;20367;-90
2021/05/03 14:07:13;;;;;;;;;;;10.40;76.60;;;;;;5027204;28;19920;-90
2021/05/03 14:09:46;;;;;;;;;;;10.40;77.10;;;;;;5031583;28;19963;-92
2021/05/03 14:12:19;;;;;;;;;;;10.40;76.90;;;;;;5004941;28;19917;-92
2021/05/03 14:14:48;;;;;;;;;;;10.50;78.10;;;;;;5025664;28;20363;-91
2021/05/03 14:17:14;;;;;;;;;;;10.60;78.20;;;;;;5006883;28;20000;-90
2021/05/03 14:19:45;;;;;;;;;;;10.70;77.50;;;;;;5024337;28;20008;-90
2021/05/03 14:22:17;;;;;;;;;;;10.90;78.00;;;;;;5010019;28;20000;-92
2021/05/03 14:24:45;;;;;;;;;;;11.10;76.80;;;;;;5005868;28;19913;-91
2021/05/03 14:27:25;;;;;;;;;;;;;;;;;;;;;
2021/05/03 14:29:55;;;;;;;;;;;11.30;75.20;;;;;;5019250;28;19935;-92
2021/05/03 14:32:35;;;;;;;;;;;11.10;74.30;;;;;;5008355;28;19960;-92
2021/05/03 14:35:05;;;;;;;;;;;11.00;74.50;;;;;;5023532;28;19995;-92
2021/05/03 14:37:34;;;;;;;;;;;11.00;74.80;;;;;;4998938;28;19963;-92
2021/05/03 14:40:03;;;;;;;;;;;10.80;74.90;;;;;;5011525;28;19920;-91
2021/05/03 14:42:29;;;;;;;;;;;10.70;74.50;;;;;;5031118;28;19917;-91
2021/05/03 14:45:01;;;;;;;;;;;10.50;74.80;;;;;;5010101;28;20393;-91
2021/05/03 14:47:43;;;;;;;;;;;10.40;74.10;;;;;;5018575;28;19931;-90
2021/05/03 14:55:43;;;;;;;;;;;10.30;74.60;;;;;;5010349;28;19923;-89
2021/05/03 14:58:09;;;;;;;;;;;10.20;74.20;;;;;;5004153;28;20286;-91
2021/05/03 15:00:35;;;;;;;;;;;10.20;74.60;;;;;;4986828;28;20020;-88
2021/05/03 15:03:07;;;;;;;;;;;10.30;75.20;;;;;;5005823;28;19920;-88
2021/05/03 15:05:41;;;;;;;;;;;10.40;74.70;;;;;;5013286;28;19960;-89
2021/05/03 15:08:11;;;;;;;;;;;10.50;75.00;;;;;;5007197;28;19918;-90
2021/05/03 15:10:39;;;;;;;;;;;10.60;75.10;;;;;;5002918;28;19929;-91
2021/05/03 15:21:46;;;;;;;;;;;10.40;75.30;;;;;;5003632;28;19936;-89
2021/05/03 15:24:23;;;;;;;;;;;10.50;76.10;;;;;;4932113;29;20396;-90
2021/05/03 15:27:01;;;;;;;;;;;10.60;75.30;;;;;;5009159;28;20268;-90
2021/05/03 15:29:57;;;;;;;;;;;10.60;74.80;;;;;;4990252;28;20367;-91
2021/05/03 15:35:18;;;;;;;;;;;10.70;75.40;;;;;;5014181;28;20331;-90
2021/05/03 15:37:47;;;;;;;;;;;10.60;74.40;;;;;;4993623;28;19960;-91
2021/05/03 15:40:13;;;;;;;;;;;10.60;73.80;;;;;;5006055;28;19935;-89
2021/05/03 15:42:39;;;;;;;;;;;10.50;74.40;;;;;;5002111;28;20370;-90
2021/05/03 15:45:28;;;;;;;;;;;10.40;74.20;;;;;;4989266;28;19986;-91
2021/05/03 15:47:57;;;;;;;;;;;10.40;74.90;;;;;;4922479;29;19950;-93
2021/05/03 15:50:23;;;;;;;;;;;10.40;75.90;;;;;;4930832;29;19974;-90
2021/05/03 15:52:51;;;;;;;;;;;10.40;75.20;;;;;;4909253;29;19983;-91
2021/05/03 15:55:17;;;;;;;;;;;10.30;76.10;;;;;;4904320;29;19938;-94
2021/05/03 15:57:45;;;;;;;;;;;10.40;76.30;;;;;;4932762;29;19918;-91
2021/05/03 16:00:17;;;;;;;;;;;10.30;76.20;;;;;;4935285;29;19919;-90
2021/05/03 16:02:43;;;;;;;;;;;10.20;76.60;;;;;;4940176;29;19999;-91
2021/05/03 16:05:26;;;;;;;;;;;10.10;75.70;;;;;;4914886;29;19915;-90
2021/05/03 16:07:58;;;;;;;;;;;10.10;75.70;;;;;;4911970;29;19915;-89
2021/05/03 16:10:23;;;;;;;;;;;10.00;76.10;;;;;;4911232;29;20528;-92
2021/05/03 16:12:51;;;;;;;;;;;10.00;76.60;;;;;;4918896;29;19918;-91